createdAt,value
2023-02-06T00:02:16.946Z,73.80
2023-02-06T00:04:44.808Z,70.65
2023-02-06T00:07:12.581Z,72.82
2023-02-06T00:09:41.864Z,72.72
2023-02-06T00:12:09.601Z,70.88
2023-02-06T00:14:37.470Z,70.18
2023-02-06T00:17:05.208Z,73.35
2023-02-06T00:19:33.418Z,77.93
2023-02-06T00:22:01.187Z,73.28
2023-02-06T00:24:29.010Z,77.53
2023-02-06T00:26:58.228Z,75.82
2023-02-06T00:29:27.312Z,73.32
2023-02-06T00:31:55.120Z,79.78
2023-02-06T00:34:22.888Z,75.85
2023-02-06T00:36:52.122Z,69.63
2023-02-06T00:39:20.289Z,77.65
2023-02-06T00:41:48.125Z,74.32
2023-02-06T00:44:17.213Z,73.88
2023-02-06T00:46:45.060Z,72.47
2023-02-06T00:49:12.923Z,73.65
2023-02-06T00:51:41.055Z,76.75
2023-02-06T00:54:09.484Z,81.30
2023-02-06T00:56:37.247Z,77.18
2023-02-06T00:59:05.097Z,76.28
2023-02-06T01:01:34.361Z,72.03
2023-02-06T01:04:02.259Z,69.80
2023-02-06T01:06:30.928Z,72.80
2023-02-06T01:08:59.073Z,75.45
2023-02-06T01:11:29.432Z,74.82
2023-02-06T01:13:57.272Z,69.18
2023-02-06T01:16:25.758Z,76.70
2023-02-06T01:18:55.514Z,72.97
2023-02-06T01:21:24.835Z,70.95
2023-02-06T01:23:53.733Z,73.90
2023-02-06T01:26:22.381Z,65.63
2023-02-06T01:28:50.267Z,61.95
2023-02-06T01:31:19.104Z,68.10
2023-02-06T01:33:47.293Z,66.60
2023-02-06T01:36:16.815Z,74.13
2023-02-06T01:38:44.622Z,75.70
2023-02-06T01:41:12.913Z,77.95
2023-02-06T01:43:42.660Z,84.88
2023-02-06T01:46:11.015Z,83.57
2023-02-06T01:48:40.089Z,85.22
2023-02-06T01:51:09.919Z,88.97
2023-02-06T01:53:39.527Z,89.70
2023-02-06T01:56:08.380Z,85.63
2023-02-06T01:58:38.495Z,85.63
2023-02-06T02:01:06.855Z,84.78
2023-02-06T02:03:36.418Z,78.63
2023-02-06T02:06:07.556Z,85.35
2023-02-06T02:08:37.720Z,82.20
2023-02-06T02:11:08.262Z,79.05
2023-02-06T02:13:39.224Z,78.18
2023-02-06T02:16:13.923Z,78.57
2023-02-06T02:18:49.122Z,78.07
2023-02-06T02:21:40.062Z,81.30
2023-02-06T02:24:10.732Z,88.07
2023-02-06T02:27:02.205Z,98.63
2023-02-06T02:29:50.851Z,92.82
2023-02-06T02:32:31.746Z,100.22
2023-02-06T02:35:04.129Z,110.55
2023-02-06T02:37:36.622Z,114.20
2023-02-06T02:40:08.028Z,107.78
2023-02-06T02:42:39.577Z,121.55
2023-02-06T02:45:11.659Z,115.68
2023-02-06T02:47:43.830Z,105.55
2023-02-06T02:50:13.200Z,120.72
2023-02-06T02:52:41.865Z,113.60
2023-02-06T02:55:17.079Z,115.05
2023-02-06T02:57:46.941Z,113.68
2023-02-06T03:00:15.987Z,113.35
2023-02-06T03:02:44.511Z,94.50
2023-02-06T03:05:16.164Z,87.60
2023-02-06T03:07:54.247Z,65.53
2023-02-06T03:10:26.336Z,88.97
2023-02-06T03:12:59.370Z,83.80
2023-02-06T03:15:30.805Z,87.65
2023-02-06T03:18:01.796Z,85.78
2023-02-06T03:20:31.434Z,80.97
2023-02-06T03:22:59.985Z,79.70
2023-02-06T03:25:31.504Z,77.05
2023-02-06T03:27:59.715Z,76.50
2023-02-06T03:30:29.402Z,81.35
2023-02-06T03:33:01.075Z,76.75
2023-02-06T03:35:32.634Z,79.82
2023-02-06T03:38:00.385Z,81.43
2023-02-06T03:40:29.430Z,94.63
2023-02-06T03:42:59.566Z,87.22
2023-02-06T03:45:28.849Z,84.60
2023-02-06T03:47:59.067Z,87.15
2023-02-06T03:50:27.381Z,83.78
2023-02-06T03:52:57.943Z,85.85
2023-02-06T03:55:25.801Z,81.72
2023-02-06T03:57:55.931Z,88.97
2023-02-06T04:00:23.957Z,84.97
2023-02-06T04:02:52.351Z,93.70
2023-02-06T04:05:20.347Z,85.15
2023-02-06T04:07:48.076Z,83.18
2023-02-06T04:10:17.140Z,73.50
2023-02-06T04:12:45.256Z,71.50
2023-02-06T04:15:13.001Z,73.20
2023-02-06T04:17:57.571Z,60.85
2023-02-06T04:20:27.197Z,63.50
2023-02-06T04:22:54.932Z,66.60
2023-02-06T04:25:23.992Z,59.92
2023-02-06T04:27:52.024Z,63.60
2023-02-06T04:30:19.841Z,61.63
2023-02-06T04:32:47.640Z,59.75
2023-02-06T04:35:15.330Z,68.20
2023-02-06T04:37:43.062Z,65.35
2023-02-06T04:40:11.380Z,61.22
2023-02-06T04:42:40.494Z,63.70
2023-02-06T04:45:08.659Z,64.82
2023-02-06T04:47:36.326Z,73.43
2023-02-06T04:50:04.507Z,70.40
2023-02-06T04:52:32.275Z,72.53
2023-02-06T04:54:59.991Z,70.95
2023-02-06T04:57:27.877Z,72.28
2023-02-06T04:59:56.970Z,71.53
2023-02-06T05:02:24.711Z,78.70
2023-02-06T05:04:52.416Z,80.82
2023-02-06T05:07:20.377Z,83.78
2023-02-06T05:09:48.200Z,77.93
2023-02-06T05:12:16.120Z,82.72
2023-02-06T05:14:43.962Z,78.90
2023-02-06T05:17:12.999Z,81.57
2023-02-06T05:19:40.727Z,80.93
2023-02-06T05:22:08.789Z,78.53
2023-02-06T05:24:36.504Z,80.57
2023-02-06T05:27:04.272Z,73.03
2023-02-06T05:29:32.401Z,73.88
2023-02-06T05:32:00.192Z,65.40
2023-02-06T05:34:29.460Z,59.63
2023-02-06T05:36:57.310Z,64.28
2023-02-06T05:39:25.538Z,58.47
2023-02-06T05:41:53.257Z,49.42
2023-02-06T05:44:21.050Z,44.40
2023-02-06T05:46:49.482Z,36.83
2023-02-06T05:49:17.324Z,45.22
2023-02-06T05:51:46.843Z,53.08
2023-02-06T05:54:16.934Z,59.00
2023-02-06T05:56:44.722Z,59.50
2023-02-06T05:59:12.778Z,63.47
2023-02-06T06:01:40.519Z,73.95
2023-02-06T06:04:08.383Z,76.18
2023-02-06T06:06:36.438Z,74.13
2023-02-06T06:09:05.584Z,79.00
2023-02-06T06:11:34.331Z,93.15
2023-02-06T06:14:02.130Z,90.78
2023-02-06T06:16:30.006Z,90.97
2023-02-06T06:18:57.764Z,105.95
2023-02-06T06:21:25.462Z,97.90
2023-02-06T06:23:53.423Z,108.43
2023-02-06T06:26:22.748Z,119.82
2023-02-06T06:28:50.564Z,112.85
2023-02-06T06:31:18.469Z,117.45
2023-02-06T06:33:46.555Z,131.77
2023-02-06T06:36:14.694Z,127.90
2023-02-06T06:38:42.736Z,139.98
2023-02-06T06:41:10.644Z,135.52
2023-02-06T06:43:39.779Z,128.40
2023-02-06T06:46:07.578Z,136.20
2023-02-06T06:48:37.044Z,141.10
2023-02-06T06:51:05.186Z,139.52
2023-02-06T06:53:33.151Z,141.80
2023-02-06T06:56:03.477Z,142.85
2023-02-06T06:58:31.423Z,145.98
2023-02-06T07:01:00.910Z,133.70
2023-02-06T07:03:28.685Z,123.75
2023-02-06T07:05:56.515Z,127.88
2023-02-06T07:08:24.546Z,121.80
2023-02-06T07:10:52.382Z,129.18
2023-02-06T07:13:20.185Z,117.85
2023-02-06T07:15:47.989Z,122.15
2023-02-06T07:18:17.079Z,118.93
2023-02-06T07:20:44.872Z,121.28
2023-02-06T07:23:12.741Z,108.18
2023-02-06T07:25:40.471Z,110.32
2023-02-06T07:28:08.231Z,125.57
2023-02-06T07:30:36.252Z,171.60
2023-02-06T07:33:05.889Z,109.57
2023-02-06T07:35:35.248Z,163.23
2023-02-06T07:38:03.167Z,99.00
2023-02-06T07:40:44.165Z,134.57
2023-02-06T07:43:12.710Z,116.53
2023-02-06T07:45:40.618Z,83.75
2023-02-06T07:48:08.814Z,84.60
2023-02-06T07:50:38.043Z,78.65
2023-02-06T07:53:05.770Z,73.75
2023-02-06T07:55:33.695Z,71.57
2023-02-06T07:58:01.597Z,73.20
2023-02-06T08:00:29.448Z,78.57
2023-02-06T08:02:57.151Z,79.57
2023-02-06T08:05:24.897Z,75.15
2023-02-06T08:07:54.092Z,69.68
2023-02-06T08:10:21.863Z,68.93
2023-02-06T08:12:49.637Z,64.28
2023-02-06T08:15:17.463Z,59.35
2023-02-06T08:17:45.246Z,58.28
2023-02-06T08:20:13.407Z,57.15
2023-02-06T08:22:41.273Z,53.85
2023-02-06T08:25:10.586Z,62.22
2023-02-06T08:27:38.256Z,72.07
2023-02-06T08:30:06.893Z,58.85
2023-02-06T08:32:35.277Z,57.25
2023-02-06T08:35:03.261Z,57.08
2023-02-06T08:37:32.267Z,54.42
2023-02-06T08:40:00.253Z,56.03
2023-02-06T08:42:29.434Z,51.40
2023-02-06T08:44:57.180Z,53.78
2023-02-06T08:47:24.944Z,47.75
2023-02-06T08:49:52.658Z,48.53
2023-02-06T08:52:20.363Z,46.85
2023-02-06T08:54:48.158Z,31.77
2023-02-06T08:57:16.474Z,37.55
2023-02-06T08:59:45.624Z,34.15
2023-02-06T09:02:13.545Z,33.03
2023-02-06T09:04:42.692Z,36.92
2023-02-06T09:07:10.524Z,33.67
2023-02-06T09:09:38.516Z,31.50
2023-02-06T09:12:06.558Z,38.70
2023-02-06T09:14:35.395Z,39.35
2023-02-06T09:17:04.648Z,38.90
2023-02-06T09:19:32.455Z,37.55
2023-02-06T09:22:00.216Z,30.00
2023-02-06T09:24:30.169Z,32.95
2023-02-06T09:27:00.168Z,31.23
2023-02-06T09:29:29.752Z,30.48
2023-02-06T09:31:58.144Z,31.95
2023-02-06T09:34:27.789Z,75.60
2023-02-06T09:36:56.856Z,35.75
2023-02-06T09:39:24.992Z,284.27
2023-02-06T09:41:53.903Z,31.98
2023-02-06T09:44:23.745Z,32.17
2023-02-06T09:46:53.862Z,35.00
2023-02-06T09:49:23.678Z,34.20
2023-02-06T09:52:01.151Z,27.20
2023-02-06T09:54:32.678Z,29.38
2023-02-06T09:57:04.311Z,39.08
2023-02-06T09:59:34.897Z,36.15
2023-02-06T10:02:08.025Z,29.35
2023-02-06T10:04:41.012Z,23.88
2023-02-06T10:07:16.436Z,22.77
2023-02-06T10:09:46.910Z,20.73
2023-02-06T10:12:17.114Z,20.38
2023-02-06T10:14:48.076Z,20.63
2023-02-06T10:17:20.676Z,22.52
2023-02-06T10:19:51.550Z,15.45
2023-02-06T10:22:27.220Z,17.90
2023-02-06T10:24:59.139Z,26.33
2023-02-06T10:27:26.878Z,28.75
2023-02-06T10:29:55.389Z,29.02
2023-02-06T10:32:29.789Z,33.38
2023-02-06T10:35:04.589Z,20.73
2023-02-06T10:37:48.348Z,20.67
2023-02-06T10:40:37.207Z,16.77
2023-02-06T10:43:13.397Z,19.83
2023-02-06T10:45:43.404Z,15.27
2023-02-06T10:48:17.065Z,19.83
2023-02-06T10:50:47.679Z,16.48
2023-02-06T10:53:18.806Z,19.75
2023-02-06T10:55:49.346Z,17.85
2023-02-06T10:58:19.914Z,17.20
2023-02-06T11:00:48.027Z,15.10
2023-02-06T11:03:18.734Z,17.33
2023-02-06T11:05:46.690Z,19.35
2023-02-06T11:08:16.618Z,18.08
2023-02-06T11:10:46.588Z,19.95
2023-02-06T11:13:16.302Z,16.67
2023-02-06T11:15:45.607Z,17.23
2023-02-06T11:18:15.237Z,19.35
2023-02-06T11:20:44.022Z,36.58
2023-02-06T11:23:16.136Z,20.13
2023-02-06T11:25:45.116Z,23.60
2023-02-06T11:28:16.529Z,21.10
2023-02-06T11:31:04.951Z,20.00
2023-02-06T11:33:46.751Z,21.63
2023-02-06T11:36:27.245Z,19.48
2023-02-06T11:38:56.736Z,19.88
2023-02-06T11:41:24.672Z,19.27
2023-02-06T11:44:01.608Z,16.80
2023-02-06T11:46:30.457Z,17.60
2023-02-06T11:49:06.641Z,17.33
2023-02-06T11:51:46.579Z,17.52
2023-02-06T11:54:21.400Z,15.30
2023-02-06T11:56:56.940Z,17.33
2023-02-06T11:59:27.477Z,19.88
2023-02-06T12:02:01.496Z,17.63
2023-02-06T12:04:32.704Z,18.52
2023-02-06T12:07:03.139Z,16.95
2023-02-06T12:09:33.957Z,19.98
2023-02-06T12:12:04.408Z,19.77
2023-02-06T12:14:38.050Z,22.02
2023-02-06T12:17:10.714Z,14.77
2023-02-06T12:19:45.267Z,17.02
2023-02-06T12:22:14.689Z,21.42
2023-02-06T12:24:44.846Z,16.92
2023-02-06T12:27:14.915Z,19.65
2023-02-06T12:29:45.554Z,22.15
2023-02-06T12:32:18.440Z,17.10
2023-02-06T12:34:53.579Z,19.25
2023-02-06T12:37:26.312Z,21.90
2023-02-06T12:39:54.211Z,22.85
2023-02-06T12:42:37.174Z,20.55
2023-02-06T12:45:13.984Z,18.63
2023-02-06T12:47:42.824Z,17.10
2023-02-06T12:50:14.763Z,20.73
2023-02-06T12:52:45.712Z,18.55
2023-02-06T12:55:17.571Z,17.92
2023-02-06T12:57:45.621Z,18.77
2023-02-06T13:00:21.565Z,22.05
2023-02-06T13:03:12.173Z,25.73
2023-02-06T13:05:40.980Z,22.10
2023-02-06T13:08:10.331Z,21.85
2023-02-06T13:10:38.833Z,23.70
2023-02-06T13:13:07.053Z,15.48
2023-02-06T13:15:38.926Z,18.60
2023-02-06T13:18:21.853Z,18.30
2023-02-06T13:21:04.509Z,20.92
2023-02-06T13:23:32.419Z,21.80
2023-02-06T13:26:01.519Z,22.58
2023-02-06T13:28:47.439Z,20.35
2023-02-06T13:31:24.497Z,30.63
2023-02-06T13:33:53.777Z,22.15
2023-02-06T13:36:26.265Z,18.83
2023-02-06T13:38:58.130Z,20.38
2023-02-06T13:41:37.275Z,20.00
2023-02-06T13:44:06.831Z,21.70
2023-02-06T13:46:49.416Z,22.65
2023-02-06T13:49:27.219Z,17.98
2023-02-06T13:51:59.324Z,19.00
2023-02-06T13:54:44.500Z,24.33
2023-02-06T13:57:24.896Z,20.17
2023-02-06T13:59:55.843Z,24.77
2023-02-06T14:02:30.161Z,21.83
2023-02-06T14:04:58.679Z,37.42
2023-02-06T14:07:34.093Z,25.92
2023-02-06T14:10:12.901Z,24.75
2023-02-06T14:12:47.748Z,19.17
2023-02-06T14:15:20.742Z,21.83
2023-02-06T14:18:07.523Z,19.20
2023-02-06T14:20:42.395Z,19.13
2023-02-06T14:23:19.923Z,22.63
2023-02-06T14:25:54.059Z,20.85
2023-02-06T14:28:27.034Z,20.23
2023-02-06T14:30:59.992Z,16.60
2023-02-06T14:33:41.518Z,21.20
2023-02-06T14:36:18.317Z,19.90
2023-02-06T14:39:03.692Z,19.25
2023-02-06T14:41:31.745Z,17.83
2023-02-06T14:44:00.656Z,15.38
2023-02-06T14:46:28.458Z,15.35
2023-02-06T14:48:57.719Z,18.20
2023-02-06T14:51:28.395Z,16.15
2023-02-06T14:53:57.407Z,17.30
2023-02-06T14:56:26.596Z,19.08
2023-02-06T14:58:54.736Z,18.02
2023-02-06T15:01:23.690Z,15.70
2023-02-06T15:03:54.730Z,13.27
2023-02-06T15:06:34.653Z,18.88
2023-02-06T15:09:02.451Z,16.45
2023-02-06T15:11:32.538Z,16.70
2023-02-06T15:14:01.895Z,13.82
2023-02-06T15:16:30.594Z,19.73
2023-02-06T15:19:11.982Z,13.15
2023-02-06T15:21:44.101Z,19.00
2023-02-06T15:24:19.445Z,15.77
2023-02-06T15:26:50.064Z,15.75
2023-02-06T15:29:19.144Z,16.15
2023-02-06T15:31:50.223Z,13.40
2023-02-06T15:34:18.928Z,15.13
2023-02-06T15:36:48.108Z,103.00
2023-02-06T15:39:16.393Z,23.25
2023-02-06T15:41:45.462Z,33.40
2023-02-06T15:44:16.121Z,24.75
2023-02-06T15:46:44.159Z,24.20
2023-02-06T15:49:15.693Z,15.68
2023-02-06T15:51:53.581Z,23.83
2023-02-06T15:54:22.592Z,31.58
2023-02-06T15:56:52.045Z,13.32
2023-02-06T15:59:21.537Z,17.17
2023-02-06T16:01:50.488Z,17.33
2023-02-06T16:04:28.566Z,18.45
2023-02-06T16:07:06.843Z,25.67
2023-02-06T16:09:40.109Z,21.20
2023-02-06T16:12:08.324Z,32.55
2023-02-06T16:14:37.544Z,27.17
2023-02-06T16:17:07.038Z,21.55
2023-02-06T16:19:40.612Z,22.00
2023-02-06T16:22:16.456Z,31.00
2023-02-06T16:24:44.915Z,22.55
2023-02-06T16:27:17.060Z,34.00
2023-02-06T16:29:50.093Z,37.38
2023-02-06T16:32:19.135Z,58.17
2023-02-06T16:34:47.428Z,25.38
2023-02-06T16:37:18.050Z,85.90
2023-02-06T16:39:46.417Z,47.13
2023-02-06T16:42:15.703Z,61.60
2023-02-06T16:44:46.138Z,19.17
2023-02-06T16:47:18.437Z,14.77
2023-02-06T16:49:48.223Z,25.30
2023-02-06T16:52:19.491Z,17.88
2023-02-06T16:54:47.792Z,19.80
2023-02-06T16:57:20.206Z,18.92
2023-02-06T16:59:48.069Z,21.80
2023-02-06T17:02:15.881Z,19.23
2023-02-06T17:04:43.725Z,28.95
2023-02-06T17:07:15.583Z,23.02
2023-02-06T17:09:45.183Z,23.30
2023-02-06T17:12:14.465Z,18.05
2023-02-06T17:14:42.781Z,32.38
2023-02-06T17:17:11.764Z,35.15
2023-02-06T17:19:39.903Z,28.30
2023-02-06T17:22:08.197Z,28.70
2023-02-06T17:24:36.302Z,23.48
2023-02-06T17:27:05.610Z,28.20
2023-02-06T17:29:33.537Z,32.72
2023-02-06T17:32:01.679Z,26.65
2023-02-06T17:34:30.406Z,26.45
2023-02-06T17:36:58.324Z,28.65
2023-02-06T17:39:26.165Z,34.55
2023-02-06T17:41:54.201Z,35.10
2023-02-06T17:44:23.233Z,32.45
2023-02-06T17:46:50.936Z,36.40
2023-02-06T17:49:19.624Z,39.75
2023-02-06T17:51:47.421Z,36.58
2023-02-06T17:54:15.134Z,34.63
2023-02-06T17:56:43.056Z,37.90
2023-02-06T17:59:10.800Z,32.45
2023-02-06T18:01:39.947Z,35.35
2023-02-06T18:04:07.880Z,54.22
2023-02-06T18:06:36.362Z,37.80
2023-02-06T18:09:04.482Z,35.20
2023-02-06T18:11:32.348Z,42.63
2023-02-06T18:14:00.226Z,42.22
2023-02-06T18:16:28.528Z,39.40
2023-02-06T18:18:57.766Z,38.00
2023-02-06T18:21:25.784Z,42.42
2023-02-06T18:23:54.399Z,37.20
2023-02-06T18:26:24.136Z,39.80
2023-02-06T18:28:52.111Z,38.90
2023-02-06T18:31:21.558Z,40.58
2023-02-06T18:33:49.735Z,40.85
2023-02-06T18:36:19.081Z,43.80
2023-02-06T18:38:46.869Z,42.60
2023-02-06T18:41:28.618Z,42.55
2023-02-06T18:43:56.450Z,44.67
2023-02-06T18:46:24.345Z,43.70
2023-02-06T18:48:52.260Z,44.42
2023-02-06T18:51:21.461Z,44.92
2023-02-06T18:53:49.422Z,46.40
2023-02-06T18:56:18.066Z,52.35
2023-02-06T18:58:45.988Z,65.28
2023-02-06T19:01:14.678Z,52.05
2023-02-06T19:03:43.024Z,45.80
2023-02-06T19:06:14.738Z,47.67
2023-02-06T19:08:46.486Z,41.70
2023-02-06T19:11:17.268Z,46.70
2023-02-06T19:13:45.238Z,47.10
2023-02-06T19:16:14.120Z,39.00
2023-02-06T19:18:42.758Z,45.25
2023-02-06T19:21:11.897Z,47.42
2023-02-06T19:23:40.264Z,48.95
2023-02-06T19:26:10.550Z,49.95
2023-02-06T19:28:39.326Z,47.83
2023-02-06T19:31:07.491Z,45.03
2023-02-06T19:33:36.667Z,48.15
2023-02-06T19:36:06.473Z,49.92
2023-02-06T19:38:34.247Z,51.58
2023-02-06T19:41:06.034Z,48.90
2023-02-06T19:43:35.248Z,46.80
2023-02-06T19:46:03.746Z,47.58
2023-02-06T19:48:31.570Z,51.67
2023-02-06T19:51:02.894Z,60.15
2023-02-06T19:53:32.820Z,55.50
2023-02-06T19:56:00.621Z,45.45
2023-02-06T19:58:30.941Z,47.30
2023-02-06T20:01:00.167Z,43.22
2023-02-06T20:03:28.741Z,45.03
2023-02-06T20:06:01.090Z,41.72
2023-02-06T20:08:29.268Z,46.05
2023-02-06T20:10:57.461Z,41.53
2023-02-06T20:13:25.237Z,43.00
2023-02-06T20:15:53.042Z,42.58
2023-02-06T20:18:22.378Z,44.20
2023-02-06T20:20:50.075Z,42.50
2023-02-06T20:23:17.822Z,39.05
2023-02-06T20:25:45.577Z,42.58
2023-02-06T20:28:14.161Z,43.88
2023-02-06T20:30:42.123Z,45.28
2023-02-06T20:33:09.921Z,45.65
2023-02-06T20:35:40.516Z,45.92
2023-02-06T20:38:08.892Z,48.88
2023-02-06T20:40:38.721Z,41.85
2023-02-06T20:43:06.621Z,49.63
2023-02-06T20:45:34.779Z,41.25
2023-02-06T20:48:02.639Z,51.38
2023-02-06T20:50:31.013Z,50.50
2023-02-06T20:53:00.199Z,47.75
2023-02-06T20:55:28.552Z,49.35
2023-02-06T20:57:56.323Z,44.92
2023-02-06T21:00:24.139Z,45.20
2023-02-06T21:02:53.180Z,45.75
2023-02-06T21:05:21.076Z,44.33
2023-02-06T21:07:48.810Z,50.15
2023-02-06T21:10:17.880Z,46.10
2023-02-06T21:12:45.629Z,49.28
2023-02-06T21:15:13.639Z,48.40
2023-02-06T21:17:41.494Z,43.33
2023-02-06T21:20:10.314Z,42.30
2023-02-06T21:22:38.037Z,43.97
2023-02-06T21:25:06.226Z,53.92
2023-02-06T21:27:35.755Z,47.95
2023-02-06T21:30:04.892Z,58.53
2023-02-06T21:32:32.900Z,54.25
2023-02-06T21:35:00.763Z,55.35
2023-02-06T21:37:28.630Z,53.72
2023-02-06T21:39:56.365Z,52.13
2023-02-06T21:42:26.214Z,57.30
2023-02-06T21:44:55.212Z,59.33
2023-02-06T21:47:22.880Z,58.47
2023-02-06T21:49:50.709Z,58.22
2023-02-06T21:52:18.435Z,53.38
2023-02-06T21:54:46.130Z,52.88
2023-02-06T21:57:13.885Z,47.00
2023-02-06T21:59:42.076Z,45.58
2023-02-06T22:02:12.345Z,46.95
2023-02-06T22:04:40.131Z,39.58
2023-02-06T22:07:09.314Z,43.47
2023-02-06T22:09:37.144Z,49.67
2023-02-06T22:12:07.070Z,49.17
2023-02-06T22:14:35.035Z,41.78
2023-02-06T22:17:02.985Z,46.90
2023-02-06T22:19:32.074Z,40.20
2023-02-06T22:21:59.800Z,38.88
2023-02-06T22:24:27.567Z,41.25
2023-02-06T22:26:55.305Z,36.95
2023-02-06T22:29:23.109Z,38.63
2023-02-06T22:31:51.030Z,37.75
2023-02-06T22:34:19.867Z,36.05
2023-02-06T22:36:50.548Z,46.30
2023-02-06T22:39:18.536Z,48.75
2023-02-06T22:41:46.946Z,41.85
2023-02-06T22:44:16.521Z,42.13
2023-02-06T22:46:45.204Z,46.67
2023-02-06T22:49:13.513Z,39.20
2023-02-06T22:51:41.809Z,37.75
2023-02-06T22:54:11.121Z,35.72
2023-02-06T22:56:41.009Z,38.22
2023-02-06T22:59:10.321Z,39.05
2023-02-06T23:01:39.479Z,45.58
2023-02-06T23:04:08.525Z,41.80
2023-02-06T23:06:36.535Z,39.00
2023-02-06T23:09:05.573Z,34.67
2023-02-06T23:11:34.724Z,42.63
2023-02-06T23:14:03.820Z,38.67
2023-02-06T23:16:32.294Z,41.15
2023-02-06T23:19:01.826Z,42.03
2023-02-06T23:21:29.589Z,46.67
2023-02-06T23:23:58.397Z,46.00
2023-02-06T23:26:26.426Z,41.72
2023-02-06T23:28:56.157Z,44.22
2023-02-06T23:31:24.448Z,45.25
2023-02-06T23:33:52.445Z,44.40
2023-02-06T23:36:21.320Z,51.80
2023-02-06T23:38:49.030Z,48.83
2023-02-06T23:41:17.710Z,47.80
2023-02-06T23:43:45.749Z,52.45
2023-02-06T23:46:15.474Z,46.38
2023-02-06T23:48:43.269Z,49.50
2023-02-06T23:51:11.041Z,49.53
2023-02-06T23:53:38.765Z,51.40
2023-02-06T23:56:10.649Z,52.08
2023-02-06T23:58:38.365Z,49.85
